Time;durP1;ratioP1;P1;durP2;ratioP2;P2;SDS_P1;SDS_P2;PMS_P1;PMS_P2;Temp;Humidity;BMP_temperature;BMP_pressure;BME280_temperature;BME280_humidity;BME280_pressure;Samples;Min_cycle;Max_cycle;Signal;HPM_P1;HPM_P2
2022/11/30 00:01:22;;;;;;;1.40;1.30;;;;;;;-11.49;87.73;101783.31;5111164;28;20054;-81
2022/11/30 00:03:53;;;;;;;1.52;1.42;;;;;;;-11.55;87.66;101783.44;5110916;28;20138;-80
2022/11/30 00:06:24;;;;;;;1.50;1.40;;;;;;;-11.62;87.54;101777.53;5109361;28;20044;-81
2022/11/30 00:08:55;;;;;;;1.30;1.20;;;;;;;-11.61;87.59;101788.81;5109482;28;20051;-80
2022/11/30 00:11:23;;;;;;;1.40;1.30;;;;;;;-11.64;87.62;101787.13;5110725;28;20413;-80
2022/11/30 00:13:50;;;;;;;1.48;1.38;;;;;;;-11.68;87.58;101795.88;5114205;28;20456;-81
2022/11/30 00:16:17;;;;;;;1.40;1.30;;;;;;;-11.72;87.74;101790.78;5114325;28;20046;-80
2022/11/30 00:18:44;;;;;;;1.30;1.20;;;;;;;-11.77;87.76;101788.31;5114479;28;20047;-80
2022/11/30 00:21:13;;;;;;;1.50;1.40;;;;;;;-11.78;87.92;101800.44;5112849;28;20660;-81
2022/11/30 00:23:42;;;;;;;1.50;1.40;;;;;;;-11.80;88.14;101784.00;5114368;28;20059;-80
2022/11/30 00:26:11;;;;;;;1.35;1.25;;;;;;;-11.80;87.87;101789.22;5114045;28;20048;-81
2022/11/30 00:28:38;;;;;;;1.40;1.30;;;;;;;-11.81;88.09;101782.28;5115037;28;20048;-81
2022/11/30 00:31:09;;;;;;;1.50;1.40;;;;;;;-11.84;88.03;101771.09;5114711;28;20048;-81
2022/11/30 00:33:37;;;;;;;1.40;1.30;;;;;;;-11.84;88.18;101773.69;5113935;28;20048;-79
2022/11/30 00:36:06;;;;;;;1.60;1.50;;;;;;;-11.84;88.20;101766.72;5113917;27;20087;-80
2022/11/30 00:38:34;;;;;;;1.30;1.20;;;;;;;-11.84;88.09;101768.47;5114316;28;20048;-81
2022/11/30 00:41:01;;;;;;;1.40;1.30;;;;;;;-11.88;87.90;101765.09;5112689;28;20078;-80
2022/11/30 00:43:29;;;;;;;1.50;1.40;;;;;;;-11.89;88.29;101765.16;5113802;28;20043;-80
2022/11/30 00:45:56;;;;;;;1.45;1.35;;;;;;;-11.92;88.38;101768.69;5113775;28;20109;-80
2022/11/30 00:48:23;;;;;;;1.25;1.20;;;;;;;-11.90;88.48;101772.13;5112378;28;20052;-80
2022/11/30 00:50:51;;;;;;;1.58;1.48;;;;;;;-11.90;88.33;101764.31;5113903;28;20051;-81
2022/11/30 00:53:19;;;;;;;1.50;1.40;;;;;;;-11.91;88.43;101765.19;5112403;28;20044;-81
2022/11/30 00:55:47;;;;;;;1.48;1.38;;;;;;;-11.90;88.44;101772.13;5113519;28;20044;-80
2022/11/30 00:58:14;;;;;;;1.50;1.40;;;;;;;-11.92;88.46;101762.59;5112126;28;20054;-80
2022/11/30 01:00:41;;;;;;;1.30;1.20;;;;;;;-11.89;88.32;101760.78;5113368;28;20040;-80
2022/11/30 01:03:08;;;;;;;1.50;1.40;;;;;;;-11.88;88.52;101761.66;5113188;28;20515;-80
2022/11/30 01:05:36;;;;;;;1.50;1.40;;;;;;;-11.90;88.40;101756.50;5113562;28;20047;-80
2022/11/30 01:08:04;;;;;;;1.17;1.17;;;;;;;-11.92;88.33;101759.97;5113114;28;20052;-81
2022/11/30 01:10:33;;;;;;;1.42;1.33;;;;;;;-11.89;88.45;101762.56;5112384;28;20051;-81
2022/11/30 01:13:01;;;;;;;1.35;1.25;;;;;;;-11.91;88.26;101765.19;5113249;28;20043;-80
2022/11/30 01:15:29;;;;;;;1.50;1.40;;;;;;;-11.94;88.61;101754.81;5113265;28;20047;-80
2022/11/30 01:17:58;;;;;;;1.30;1.20;;;;;;;-11.87;88.62;101756.41;5113285;28;20498;-81
2022/11/30 01:20:25;;;;;;;1.60;1.50;;;;;;;-11.84;88.50;101764.13;5111852;28;20047;-80
2022/11/30 01:22:52;;;;;;;1.50;1.40;;;;;;;-11.83;88.31;101754.56;5112863;28;20048;-80
2022/11/30 01:25:19;;;;;;;1.40;1.30;;;;;;;-11.82;88.29;101761.50;5111555;28;20417;-81
2022/11/30 01:27:49;;;;;;;1.45;1.35;;;;;;;-11.86;88.41;101758.09;5113271;28;20421;-80
2022/11/30 01:30:17;;;;;;;1.50;1.40;;;;;;;-11.86;88.49;101759.88;5111551;28;20506;-80
2022/11/30 01:32:44;;;;;;;1.50;1.40;;;;;;;-11.85;88.46;101758.94;5113281;28;20762;-80
2022/11/30 01:35:11;;;;;;;1.50;1.40;;;;;;;-11.85;88.36;101759.81;5111594;28;20101;-80
2022/11/30 01:37:38;;;;;;;1.30;1.20;;;;;;;-11.86;88.31;101747.66;5112833;28;20101;-79
2022/11/30 01:40:06;;;;;;;1.40;1.30;;;;;;;-11.87;88.40;101761.63;5112777;28;20044;-80
2022/11/30 01:42:36;;;;;;;1.40;1.30;;;;;;;-11.91;88.67;101754.75;5111690;28;20524;-81
2022/11/30 01:45:04;;;;;;;1.40;1.30;;;;;;;-11.93;88.58;101759.13;5112698;28;20058;-81
2022/11/30 01:47:38;;;;;;;1.00;1.00;;;;;;;-11.91;88.70;101752.16;5112771;28;20403;-80
2022/11/30 01:50:11;;;;;;;0.95;0.95;;;;;;;-11.93;88.87;101745.25;5111309;28;20051;-80
2022/11/30 01:52:41;;;;;;;1.58;1.48;;;;;;;-11.93;88.67;101746.13;5112668;28;20124;-81
2022/11/30 01:55:18;;;;;;;1.60;1.50;;;;;;;-11.94;88.69;101749.63;5111232;28;20082;-80
2022/11/30 01:57:52;;;;;;;1.08;1.08;;;;;;;-11.94;88.68;101743.56;5111574;28;20515;-81
2022/11/30 02:00:20;;;;;;;1.40;1.30;;;;;;;-11.97;88.54;101747.09;5111173;28;20460;-80
2022/11/30 02:02:51;;;;;;;1.50;1.40;;;;;;;-11.93;88.57;101743.50;5112380;27;20052;-80
2022/11/30 02:05:19;;;;;;;1.30;1.20;;;;;;;-12.00;88.36;101744.53;5111796;28;20059;-80
2022/11/30 02:07:46;;;;;;;1.52;1.42;;;;;;;-12.05;88.68;101748.97;5110995;28;20073;-80
2022/11/30 02:10:17;;;;;;;1.38;1.27;;;;;;;-12.06;88.95;101755.09;5112078;28;20067;-81
2022/11/30 02:12:57;;;;;;;1.50;1.40;;;;;;;-12.07;88.71;101742.97;5112417;28;20510;-81
2022/11/30 02:16:18;;;;;;;1.30;1.20;;;;;;;-12.06;88.87;101735.13;5097518;28;20147;-81
2022/11/30 02:18:55;;;;;;;1.15;1.15;;;;;;;-12.03;88.72;101742.00;5110919;28;20501;-80
2022/11/30 02:21:32;;;;;;;1.40;1.30;;;;;;;-12.05;88.59;101739.44;5110994;28;20082;-81
2022/11/30 02:24:15;;;;;;;1.30;1.20;;;;;;;-12.07;88.54;101728.19;5111057;28;20466;-80
2022/11/30 02:27:07;;;;;;;1.30;1.20;;;;;;;-12.04;88.71;101737.69;5112330;28;20051;-80
2022/11/30 02:29:42;;;;;;;1.50;1.40;;;;;;;-12.04;88.60;101738.53;5111592;28;20108;-80
2022/11/30 02:32:24;;;;;;;1.48;1.38;;;;;;;-12.03;88.45;101734.19;5110471;28;20133;-80
2022/11/30 02:34:52;;;;;;;1.50;1.40;;;;;;;-12.07;88.69;101735.16;5110060;28;20047;-81
2022/11/30 02:37:20;;;;;;;1.45;1.35;;;;;;;-11.98;88.60;101742.75;5111491;28;20048;-80
2022/11/30 02:39:47;;;;;;;1.50;1.40;;;;;;;-11.96;88.41;101734.91;5110512;28;20052;-79
2022/11/30 02:42:14;;;;;;;1.33;1.23;;;;;;;-11.98;88.52;101737.53;5111667;28;20047;-80
2022/11/30 02:44:45;;;;;;;1.50;1.40;;;;;;;-12.02;88.35;101735.91;5110507;28;20096;-81
2022/11/30 02:47:43;;;;;;;1.50;1.40;;;;;;;-12.01;88.61;101732.41;5110803;28;20047;-81
2022/11/30 02:50:18;;;;;;;1.50;1.40;;;;;;;-12.02;88.78;101725.50;5110209;28;20055;-80
2022/11/30 02:52:45;;;;;;;1.50;1.40;;;;;;;-12.00;88.63;101721.09;5093541;28;20104;-81
2022/11/30 02:55:16;;;;;;;1.40;1.30;;;;;;;-11.95;88.76;101726.19;5111284;28;20040;-81
2022/11/30 02:57:43;;;;;;;1.35;1.25;;;;;;;-11.96;88.54;101719.28;5111428;28;20048;-81
2022/11/30 03:00:11;;;;;;;1.35;1.25;;;;;;;-11.92;88.82;101723.53;5111101;28;20047;-80
2022/11/30 03:02:38;;;;;;;1.30;1.20;;;;;;;-11.96;88.67;101714.94;5111586;28;20529;-80
2022/11/30 03:05:06;;;;;;;1.40;1.30;;;;;;;-11.89;88.84;101726.09;5111490;28;20061;-80
2022/11/30 03:07:34;;;;;;;1.30;1.20;;;;;;;-11.87;88.84;101719.09;5111054;28;20048;-81
2022/11/30 03:10:02;;;;;;;1.45;1.35;;;;;;;-11.83;88.66;101726.75;5109852;28;20058;-81
2022/11/30 03:12:29;;;;;;;1.40;1.30;;;;;;;-11.86;88.66;101724.22;5111505;27;20048;-80
2022/11/30 03:14:56;;;;;;;1.60;1.50;;;;;;;-11.89;88.66;101726.09;5111053;28;20570;-80
2022/11/30 03:17:23;;;;;;;1.35;1.25;;;;;;;-11.93;88.57;101727.88;5110961;28;20052;-81
2022/11/30 03:19:50;;;;;;;1.33;1.23;;;;;;;-11.96;88.47;101727.09;5110981;28;20047;-80
2022/11/30 03:22:17;;;;;;;1.35;1.25;;;;;;;-12.01;88.67;101727.19;5110712;28;20043;-80
2022/11/30 03:24:44;;;;;;;1.15;1.15;;;;;;;-12.01;88.72;101727.19;5111085;28;20078;-80
2022/11/30 03:27:12;;;;;;;1.10;1.10;;;;;;;-12.06;88.79;101729.06;5110843;28;20044;-81
2022/11/30 03:29:43;;;;;;;1.60;1.50;;;;;;;-12.08;88.96;101725.63;5110670;28;20059;-81
2022/11/30 03:32:10;;;;;;;1.40;1.30;;;;;;;-12.05;88.78;101725.53;5110917;28;20047;-80
2022/11/30 03:34:37;;;;;;;1.45;1.35;;;;;;;-12.13;88.87;101725.72;5093138;28;20108;-80
2022/11/30 03:37:04;;;;;;;1.38;1.27;;;;;;;-12.14;89.01;101731.81;5112082;28;20055;-81
2022/11/30 03:39:31;;;;;;;1.58;1.48;;;;;;;-12.17;88.76;101720.63;5110143;28;20047;-81
2022/11/30 03:41:57;;;;;;;1.40;1.30;;;;;;;-12.24;89.07;101725.97;5111820;28;20055;-81
2022/11/30 03:44:25;;;;;;;1.30;1.20;;;;;;;-12.24;88.75;101723.34;5110398;28;20047;-81
2022/11/30 03:46:52;;;;;;;1.50;1.40;;;;;;;-12.25;89.02;101729.47;5113247;28;20398;-81
2022/11/30 03:49:19;;;;;;;1.50;1.40;;;;;;;-12.29;88.92;101727.78;5114591;28;20052;-81
2022/11/30 03:51:46;;;;;;;1.50;1.40;;;;;;;-12.34;88.93;101724.44;5114730;27;20044;-80
2022/11/30 03:54:13;;;;;;;1.50;1.40;;;;;;;-12.38;88.98;101730.63;5114576;27;20097;-80
2022/11/30 03:56:40;;;;;;;1.50;1.40;;;;;;;-12.40;88.96;101721.97;5114513;28;20043;-80
2022/11/30 03:59:07;;;;;;;1.40;1.30;;;;;;;-12.44;88.95;101725.50;5113360;28;20056;-80
2022/11/30 04:01:35;;;;;;;1.50;1.40;;;;;;;-12.48;89.01;101724.75;5114591;28;20093;-81
2022/11/30 04:04:02;;;;;;;1.50;1.40;;;;;;;-12.49;89.09;101730.81;5114123;28;20047;-83
2022/11/30 04:06:29;;;;;;;1.50;1.40;;;;;;;-12.49;88.91;101727.34;5109683;28;20569;-81
2022/11/30 04:08:56;;;;;;;1.45;1.35;;;;;;;-12.55;88.87;101717.94;5100206;28;20104;-82
2022/11/30 04:11:34;;;;;;;1.50;1.40;;;;;;;-12.55;88.80;101725.75;5106198;28;20047;-80
2022/11/30 04:14:17;;;;;;;1.50;1.40;;;;;;;-12.56;88.71;101728.38;5093846;28;20044;-81
2022/11/30 04:16:44;;;;;;;1.30;1.20;;;;;;;-12.60;88.85;101722.38;5112502;28;20422;-81
2022/11/30 04:19:13;;;;;;;1.58;1.48;;;;;;;-12.60;88.90;101724.97;5109033;28;20866;-81
2022/11/30 04:21:40;;;;;;;1.33;1.23;;;;;;;-12.60;88.88;101734.53;5106161;28;20044;-79
2022/11/30 04:24:07;;;;;;;1.50;1.40;;;;;;;-12.64;88.59;101730.28;5108461;28;20524;-79
2022/11/30 04:26:35;;;;;;;1.40;1.30;;;;;;;-12.62;88.98;101734.56;5117038;27;20075;-79
2022/11/30 04:29:02;;;;;;;1.52;1.42;;;;;;;-12.64;88.99;101728.50;5108496;28;20048;-80
2022/11/30 04:31:30;;;;;;;1.50;1.40;;;;;;;-12.61;88.98;101732.81;5113980;28;20546;-81
2022/11/30 04:33:57;;;;;;;1.50;1.40;;;;;;;-12.64;88.97;101730.28;5112729;28;20139;-80
2022/11/30 04:36:24;;;;;;;1.50;1.40;;;;;;;-12.64;88.88;101732.88;5109328;28;20051;-81
2022/11/30 04:38:51;;;;;;;1.40;1.30;;;;;;;-12.63;88.91;101731.97;5096398;28;20417;-82
2022/11/30 04:41:18;;;;;;;1.60;1.50;;;;;;;-12.64;88.92;101733.72;5103139;28;20040;-80
2022/11/30 04:43:45;;;;;;;1.50;1.40;;;;;;;-12.67;88.94;101737.25;5088196;28;20044;-81
2022/11/30 04:46:13;;;;;;;1.30;1.20;;;;;;;-12.68;88.89;101745.94;5110104;28;20057;-81
2022/11/30 04:48:41;;;;;;;1.33;1.23;;;;;;;-12.67;88.87;101744.19;5103989;28;20109;-83
2022/11/30 04:51:08;;;;;;;1.10;1.10;;;;;;;-12.67;88.92;101739.00;5109044;28;20059;-81
2022/11/30 04:53:36;;;;;;;1.50;1.40;;;;;;;-12.69;89.02;101738.16;4756134;28;10000699;-83
2022/11/30 04:56:09;;;;;;;1.50;1.40;;;;;;;-12.71;89.17;101743.41;5104537;28;20502;-82
2022/11/30 04:58:37;;;;;;;1.17;1.15;;;;;;;-12.67;89.02;101752.00;5101679;28;20058;-82
2022/11/30 05:01:05;;;;;;;1.33;1.23;;;;;;;-12.64;89.12;101745.88;5110440;28;20364;-82
2022/11/30 05:03:33;;;;;;;1.10;1.10;;;;;;;-12.63;88.93;101744.97;5118452;27;20048;-83
2022/11/30 05:06:00;;;;;;;1.50;1.40;;;;;;;-12.65;89.02;101739.81;5098308;28;20048;-82
2022/11/30 05:08:29;;;;;;;1.40;1.30;;;;;;;-12.64;88.96;101751.09;5099103;28;20067;-81
2022/11/30 05:10:56;;;;;;;1.60;1.50;;;;;;;-12.67;89.18;101759.81;5104629;28;20482;-82
2022/11/30 05:13:27;;;;;;;1.60;1.50;;;;;;;-12.65;89.08;101747.63;5095918;28;20579;-84
2022/11/30 05:16:00;;;;;;;1.35;1.25;;;;;;;-12.71;89.20;101730.41;5076222;28;20051;-83
2022/11/30 05:18:28;;;;;;;1.52;1.42;;;;;;;-12.59;88.93;101744.03;5110406;28;20043;-83
2022/11/30 05:20:56;;;;;;;1.50;1.40;;;;;;;-12.69;88.97;101733.81;5093562;28;20518;-83
2022/11/30 05:23:31;;;;;;;1.40;1.30;;;;;;;-12.72;89.08;101720.00;5107223;28;20052;-83
2022/11/30 05:26:01;;;;;;;1.40;1.30;;;;;;;-12.64;89.01;101736.31;5106551;28;20436;-83
2022/11/30 05:28:31;;;;;;;1.60;1.50;;;;;;;-12.66;89.25;101743.28;5101331;28;20055;-83
2022/11/30 05:31:04;;;;;;;1.60;1.50;;;;;;;-12.66;89.20;101745.91;5107586;28;20208;-84
2022/11/30 05:33:32;;;;;;;1.58;1.48;;;;;;;-12.67;89.12;101745.03;5112891;28;20043;-83
2022/11/30 05:35:59;;;;;;;1.48;1.38;;;;;;;-12.70;88.93;101750.31;5109990;28;20051;-82
2022/11/30 05:38:31;;;;;;;1.50;1.40;;;;;;;-12.78;88.95;101754.81;5109509;28;20051;-83
2022/11/30 05:41:01;;;;;;;1.50;1.40;;;;;;;-12.70;89.20;101760.72;5108500;28;20409;-83
2022/11/30 05:43:28;;;;;;;1.50;1.40;;;;;;;-12.66;89.35;101756.31;5107385;28;20043;-81
2022/11/30 05:45:59;;;;;;;1.65;1.55;;;;;;;-12.61;89.17;101753.63;5109273;28;20793;-82
2022/11/30 05:48:27;;;;;;;1.50;1.40;;;;;;;-12.57;89.22;101763.94;5104497;28;20097;-83
2022/11/30 05:50:54;;;;;;;1.52;1.42;;;;;;;-12.54;89.09;101766.47;5095337;28;20060;-83
2022/11/30 05:53:25;;;;;;;1.50;1.40;;;;;;;-12.51;88.89;101760.34;5093053;28;20072;-83
2022/11/30 05:55:53;;;;;;;1.52;1.42;;;;;;;-12.50;89.03;101760.34;5094796;28;20051;-82
2022/11/30 05:58:20;;;;;;;1.58;1.48;;;;;;;-12.46;88.94;101768.91;5088572;28;20147;-81
2022/11/30 06:00:47;;;;;;;1.60;1.50;;;;;;;-12.41;88.75;101774.91;5087290;28;20387;-82
2022/11/30 06:03:15;;;;;;;1.42;1.33;;;;;;;-12.39;88.60;101775.72;5088370;28;20125;-81
2022/11/30 06:05:43;;;;;;;1.40;1.30;;;;;;;-12.32;88.79;101776.47;5086621;28;20564;-81
2022/11/30 06:08:10;;;;;;;1.58;1.48;;;;;;;-12.25;88.48;101776.31;5086843;28;20473;-81
2022/11/30 06:10:38;;;;;;;1.27;1.20;;;;;;;-12.20;88.51;101780.56;5086197;28;20079;-83
2022/11/30 06:13:07;;;;;;;1.50;1.40;;;;;;;-12.21;88.51;101774.50;5088076;28;20293;-82
2022/11/30 06:15:36;;;;;;;1.42;1.33;;;;;;;-12.13;88.46;101783.00;5088349;28;20055;-81
2022/11/30 06:18:04;;;;;;;1.10;1.10;;;;;;;-12.04;88.21;101779.34;5087079;28;20537;-81
2022/11/30 06:20:32;;;;;;;1.50;1.40;;;;;;;-12.02;88.32;101777.59;5088700;28;20506;-82
2022/11/30 06:22:59;;;;;;;1.58;1.48;;;;;;;-11.98;88.25;101778.38;5091790;28;20589;-82
2022/11/30 06:25:26;;;;;;;1.23;1.20;;;;;;;-11.94;88.08;101791.28;5091311;28;20139;-81
2022/11/30 06:27:53;;;;;;;1.60;1.50;;;;;;;-11.90;88.05;101785.13;5101014;28;20052;-89
2022/11/30 06:30:20;;;;;;;1.33;1.23;;;;;;;-11.81;88.12;101779.69;5098760;28;20056;-82
2022/11/30 06:32:49;;;;;;;1.60;1.50;;;;;;;-11.66;87.77;101793.25;5091372;28;20445;-81
2022/11/30 06:35:17;;;;;;;1.40;1.30;;;;;;;-11.64;87.33;101771.50;5092207;28;20435;-83
2022/11/30 06:37:45;;;;;;;1.35;1.25;;;;;;;-11.51;87.20;101777.28;5090384;28;20054;-81
2022/11/30 06:40:12;;;;;;;1.33;1.23;;;;;;;-11.33;86.80;101794.22;5093712;28;20040;-83
2022/11/30 06:42:39;;;;;;;1.60;1.50;;;;;;;-11.21;86.53;101787.88;5091370;28;20067;-83
2022/11/30 06:45:07;;;;;;;1.40;1.30;;;;;;;-11.13;86.66;101781.56;5091188;28;20124;-83
2022/11/30 06:47:34;;;;;;;1.23;1.17;;;;;;;-11.06;86.10;101787.47;5091092;28;20132;-80
2022/11/30 06:50:01;;;;;;;1.50;1.40;;;;;;;-10.93;85.64;101790.63;5091406;28;20072;-84
2022/11/30 06:52:30;;;;;;;1.40;1.30;;;;;;;-10.87;85.46;101792.22;5102235;28;20440;-83
2022/11/30 06:54:57;;;;;;;1.45;1.35;;;;;;;-10.79;85.34;101790.25;5111549;28;20050;-84
2022/11/30 06:57:28;;;;;;;1.63;1.52;;;;;;;-10.71;85.07;101793.53;5111855;28;20116;-83
2022/11/30 06:59:55;;;;;;;1.33;1.23;;;;;;;-10.60;84.98;101794.13;5110098;28;20509;-83
2022/11/30 07:02:23;;;;;;;1.10;1.10;;;;;;;-10.38;84.69;101786.56;5110959;28;20528;-82
2022/11/30 07:04:51;;;;;;;1.50;1.40;;;;;;;-10.15;84.02;101778.03;5111330;28;20047;-83
2022/11/30 07:07:18;;;;;;;1.50;1.40;;;;;;;-9.81;83.29;101788.34;5109743;28;20081;-83
2022/11/30 07:09:45;;;;;;;1.20;1.20;;;;;;;-9.63;82.58;101786.06;5106516;28;20048;-83
2022/11/30 07:12:12;;;;;;;1.55;1.45;;;;;;;-9.48;82.25;101782.13;5113085;27;20509;-81
2022/11/30 07:14:39;;;;;;;1.50;1.40;;;;;;;-9.34;81.79;101787.78;5099704;28;20445;-81
2022/11/30 07:17:06;;;;;;;1.33;1.23;;;;;;;-9.23;81.29;101780.44;5098367;28;20063;-81
2022/11/30 07:19:33;;;;;;;1.50;1.40;;;;;;;-9.05;80.77;101788.56;5099867;28;20051;-82
2022/11/30 07:22:02;;;;;;;1.50;1.40;;;;;;;-8.91;80.22;101799.44;5096083;28;20524;-81
2022/11/30 07:27:14;;;;;;;1.30;1.20;;;;;;;-8.72;79.87;101800.50;5100817;28;20479;-81
2022/11/30 07:29:42;;;;;;;1.30;1.20;;;;;;;-8.53;79.11;101792.88;5113024;28;20054;-82
2022/11/30 07:32:10;;;;;;;1.33;1.23;;;;;;;-8.39;78.68;101799.41;5093015;28;20052;-82
2022/11/30 07:34:37;;;;;;;1.40;1.30;;;;;;;-8.22;78.29;101804.00;5091685;28;20044;-81
2022/11/30 07:37:04;;;;;;;1.10;1.10;;;;;;;-7.88;77.76;101806.22;5085175;28;20457;-81
2022/11/30 07:39:31;;;;;;;1.50;1.40;;;;;;;-7.66;77.03;101806.25;5079994;28;20051;-81
2022/11/30 07:41:58;;;;;;;1.42;1.33;;;;;;;-7.51;76.06;101805.66;5081813;28;20040;-82
2022/11/30 07:44:26;;;;;;;1.00;1.00;;;;;;;-7.49;75.53;101803.84;5090333;28;20076;-81
2022/11/30 07:46:54;;;;;;;1.20;1.15;;;;;;;-7.31;74.77;101807.50;5090384;28;20101;-82
2022/11/30 07:49:21;;;;;;;1.10;1.10;;;;;;;-7.13;73.99;101805.91;5090752;28;20103;-82
2022/11/30 07:51:48;;;;;;;1.10;1.10;;;;;;;-6.93;73.34;101814.75;5089881;28;20476;-81
2022/11/30 07:54:15;;;;;;;1.00;1.00;;;;;;;-6.74;72.82;101802.53;5090431;28;20506;-83
2022/11/30 07:56:42;;;;;;;1.00;1.00;;;;;;;-6.48;72.58;101809.31;5090067;28;20052;-82
2022/11/30 07:59:09;;;;;;;1.15;1.15;;;;;;;-6.37;71.69;101800.97;5090207;28;20501;-82
2022/11/30 08:01:36;;;;;;;1.27;1.20;;;;;;;-6.17;71.21;101795.69;5090513;28;20040;-82
2022/11/30 08:04:04;;;;;;;1.05;1.05;;;;;;;-6.02;70.29;101796.75;5089895;28;20269;-83
2022/11/30 08:06:31;;;;;;;1.10;1.10;;;;;;;-5.86;69.97;101796.03;5093421;28;20052;-83
2022/11/30 08:09:00;;;;;;;0.95;0.95;;;;;;;-5.59;69.08;101800.00;5095700;28;20040;-82
2022/11/30 08:11:30;;;;;;;1.30;1.20;;;;;;;-5.36;68.38;101795.44;5087634;28;20039;-83
2022/11/30 08:13:57;;;;;;;1.17;1.17;;;;;;;-5.34;67.72;101793.56;5070664;28;20131;-83
2022/11/30 08:16:26;;;;;;;1.02;1.02;;;;;;;-5.12;67.45;101791.59;5088275;28;20082;-82
2022/11/30 08:18:55;;;;;;;1.10;1.08;;;;;;;-4.87;67.20;101788.59;5087328;28;20051;-84
2022/11/30 08:21:23;;;;;;;1.10;1.10;;;;;;;-4.72;66.70;101788.75;5086015;28;20055;-81
2022/11/30 08:23:52;;;;;;;1.00;1.00;;;;;;;-4.56;65.95;101781.75;5087059;28;20047;-82
2022/11/30 08:26:22;;;;;;;0.90;0.90;;;;;;;-4.30;65.49;101793.59;5086620;28;20794;-81
2022/11/30 08:28:50;;;;;;;0.80;0.80;;;;;;;-4.21;64.92;101782.53;5086781;28;20055;-81
2022/11/30 08:31:23;;;;;;;0.88;0.88;;;;;;;-4.08;64.36;101781.91;5081806;28;20052;-80
2022/11/30 08:33:58;;;;;;;1.00;1.00;;;;;;;-3.95;64.12;101777.66;5078212;28;20048;-81
2022/11/30 08:36:26;;;;;;;;;;;;;;;-3.72;63.72;101776.44;5093825;28;20114;-81
2022/11/30 08:38:56;;;;;;;1.08;1.08;;;;;;;-3.67;62.95;101773.50;5092594;28;20339;-81
2022/11/30 08:41:23;;;;;;;0.90;0.90;;;;;;;-3.57;62.27;101767.66;5092055;28;20449;-82
2022/11/30 08:43:51;;;;;;;1.10;1.10;;;;;;;-3.47;61.84;101772.41;5094845;28;20044;-81
2022/11/30 08:46:21;;;;;;;0.95;0.95;;;;;;;-3.25;61.51;101774.69;5094242;28;20063;-81
2022/11/30 08:49:09;;;;;;;0.90;0.90;;;;;;;-3.31;61.38;101766.16;5092988;28;20151;-83
2022/11/30 08:51:54;;;;;;;1.00;1.00;;;;;;;-3.05;61.15;101764.66;5076939;28;20074;-82
2022/11/30 08:54:43;;;;;;;0.77;0.77;;;;;;;-2.99;60.67;101773.16;5090985;28;20048;-82
2022/11/30 08:57:12;;;;;;;1.00;1.00;;;;;;;-2.88;60.56;101773.41;5091436;28;20518;-84
2022/11/30 08:59:39;;;;;;;0.80;0.80;;;;;;;-2.65;60.26;101775.53;5083452;28;20048;-83
2022/11/30 09:02:09;;;;;;;0.98;0.98;;;;;;;-2.53;59.44;101775.72;5079837;28;20514;-83
2022/11/30 09:04:36;;;;;;;1.00;1.00;;;;;;;-2.40;59.26;101760.84;5079232;28;20048;-81
2022/11/30 09:07:08;;;;;;;0.88;0.88;;;;;;;-2.19;58.33;101763.97;5078423;28;20574;-82
2022/11/30 09:09:40;;;;;;;1.17;1.17;;;;;;;-2.00;58.02;101769.81;5087354;28;20106;-83
2022/11/30 09:12:08;;;;;;;1.10;1.10;;;;;;;-1.94;57.81;101763.28;5081738;28;20058;-83
2022/11/30 09:14:48;;;;;;;1.17;1.15;;;;;;;-1.80;57.73;101759.75;5087928;28;20049;-84
2022/11/30 09:17:23;;;;;;;;;;;;;;;-1.62;57.81;101757.75;5101821;28;20059;-83
2022/11/30 09:19:50;;;;;;;1.00;1.00;;;;;;;-1.51;56.88;101749.13;5086600;28;20408;-83
2022/11/30 09:22:17;;;;;;;1.00;1.00;;;;;;;-1.32;56.11;101752.25;5085141;28;20051;-81
2022/11/30 09:24:44;;;;;;;1.30;1.20;;;;;;;-1.16;56.12;101749.47;5082495;28;20044;-84
2022/11/30 09:27:12;;;;;;;1.00;1.00;;;;;;;-0.97;55.41;101738.47;5081745;28;20145;-87
2022/11/30 09:29:39;;;;;;;1.27;1.20;;;;;;;-0.84;54.78;101749.09;5075432;28;20074;-83
2022/11/30 09:32:06;;;;;;;1.15;1.15;;;;;;;-0.92;54.91;101749.63;5075964;28;20556;-81
2022/11/30 09:34:33;;;;;;;1.40;1.30;;;;;;;-0.98;54.74;101753.53;5076192;28;20056;-82
2022/11/30 09:37:00;;;;;;;1.17;1.15;;;;;;;-0.99;54.32;101756.28;5074765;28;20506;-81
2022/11/30 09:39:27;;;;;;;1.10;1.10;;;;;;;-0.88;54.56;101759.06;5088221;28;20170;-83
2022/11/30 09:42:16;;;;;;;1.15;1.15;;;;;;;-1.02;54.47;101748.53;5086609;28;20066;-83
2022/11/30 09:44:52;;;;;;;1.02;1.02;;;;;;;-0.85;54.13;101756.22;5073225;28;20047;-84
2022/11/30 09:47:34;;;;;;;1.27;1.20;;;;;;;-0.83;53.63;101764.06;5064754;28;20128;-83
2022/11/30 09:50:04;;;;;;;0.82;0.82;;;;;;;-0.73;54.06;101757.19;5084463;28;20488;-83
2022/11/30 09:52:37;;;;;;;1.50;1.40;;;;;;;-0.27;53.10;101754.88;5090885;28;20055;-83
2022/11/30 09:55:08;;;;;;;1.42;1.33;;;;;;;-0.05;52.63;101751.56;5091025;28;20044;-83
2022/11/30 09:57:41;;;;;;;1.40;1.30;;;;;;;0.25;51.92;101754.78;5089665;28;20143;-83
2022/11/30 10:00:17;;;;;;;1.35;1.25;;;;;;;0.56;51.22;101750.75;5083376;28;20143;-82
2022/11/30 10:02:45;;;;;;;1.20;1.20;;;;;;;0.68;50.76;101747.19;5092083;28;20414;-81
2022/11/30 10:05:32;;;;;;;1.50;1.40;;;;;;;1.08;49.60;101752.19;5090396;28;20058;-83
2022/11/30 10:08:05;;;;;;;1.10;1.10;;;;;;;1.34;49.39;101750.19;5091839;28;20048;-82
2022/11/30 10:10:35;;;;;;;1.25;1.20;;;;;;;1.28;48.75;101759.50;5091483;28;20052;-81
2022/11/30 10:13:22;;;;;;;1.30;1.20;;;;;;;1.60;48.52;101760.69;5072903;28;20051;-82
2022/11/30 10:15:53;;;;;;;1.40;1.30;;;;;;;1.93;47.52;101749.19;5091008;28;20047;-84
2022/11/30 10:18:59;;;;;;;1.40;1.30;;;;;;;1.50;47.18;101757.88;5091928;28;20165;-80
2022/11/30 10:21:26;;;;;;;;;;;;;;;1.33;48.40;101750.34;5091768;28;20040;-83
2022/11/30 10:24:23;;;;;;;1.30;1.20;;;;;;;1.78;47.01;101747.75;5092380;28;19924;-82
2022/11/30 10:26:56;;;;;;;1.40;1.30;;;;;;;2.13;46.25;101751.13;5086790;28;20048;-83
2022/11/30 10:29:32;;;;;;;1.25;1.20;;;;;;;2.16;45.74;101753.53;5090220;28;20071;-82
2022/11/30 10:32:11;;;;;;;1.40;1.30;;;;;;;2.41;46.26;101748.91;5070392;28;20122;-80
2022/11/30 10:34:40;;;;;;;1.30;1.20;;;;;;;2.87;45.73;101746.94;5088628;28;20094;-79
2022/11/30 10:37:26;;;;;;;1.30;1.20;;;;;;;2.89;44.94;101742.34;5086480;28;20052;-80
2022/11/30 10:40:03;;;;;;;1.20;1.20;;;;;;;2.52;45.79;101746.19;5090436;28;20060;-80
2022/11/30 10:42:42;;;;;;;1.02;1.02;;;;;;;1.85;47.14;101740.94;5088225;28;20387;-81
2022/11/30 10:45:28;;;;;;;1.10;1.10;;;;;;;1.24;47.72;101750.06;5089920;28;20052;-80
2022/11/30 10:48:32;;;;;;;1.20;1.20;;;;;;;1.27;47.91;101756.97;5081373;28;20056;-81
2022/11/30 10:51:00;;;;;;;1.10;1.10;;;;;;;1.35;47.14;101751.06;5089322;28;20067;-81
2022/11/30 10:53:27;;;;;;;1.30;1.20;;;;;;;1.37;46.92;101741.13;5087580;28;20052;-80
2022/11/30 10:55:59;;;;;;;1.10;1.10;;;;;;;1.56;46.37;101746.75;5086054;28;20062;-81
2022/11/30 10:58:29;;;;;;;1.20;1.17;;;;;;;1.73;46.22;101740.09;5089536;28;20117;-81
2022/11/30 11:01:05;;;;;;;1.20;1.15;;;;;;;2.22;45.13;101741.53;5090640;28;20047;-80
2022/11/30 11:03:33;;;;;;;1.40;1.30;;;;;;;1.97;45.09;101737.31;5087049;28;20055;-80
2022/11/30 11:06:22;;;;;;;1.13;1.13;;;;;;;2.55;44.86;101745.09;5089737;28;20403;-80
2022/11/30 11:08:49;;;;;;;1.10;1.10;;;;;;;2.41;43.77;101718.75;5065235;28;20051;-80
2022/11/30 11:11:28;;;;;;;1.40;1.30;;;;;;;1.79;45.20;101734.28;5070809;28;20051;-81
2022/11/30 11:14:28;;;;;;;1.40;1.30;;;;;;;2.22;45.04;101725.53;5089722;28;20048;-81
2022/11/30 11:17:25;;;;;;;1.17;1.17;;;;;;;2.15;44.84;101727.88;5006818;28;20149;-81
2022/11/30 11:19:53;;;;;;;1.10;1.10;;;;;;;1.89;44.98;101729.09;5007627;28;20161;-82
2022/11/30 11:22:24;;;;;;;1.20;1.20;;;;;;;1.78;45.25;101731.75;5006936;28;20580;-83
2022/11/30 11:24:55;;;;;;;1.30;1.20;;;;;;;1.74;44.97;101729.31;4996435;28;20136;-84
2022/11/30 11:27:26;;;;;;;1.13;1.13;;;;;;;1.41;45.32;101734.63;5004175;28;20064;-84
2022/11/30 11:30:16;;;;;;;1.30;1.20;;;;;;;0.97;45.59;101737.03;5012353;28;20061;-84
2022/11/30 11:33:02;;;;;;;1.30;1.20;;;;;;;1.14;45.93;101733.13;5027749;28;20053;-82
2022/11/30 11:35:40;;;;;;;1.40;1.30;;;;;;;1.43;45.52;101738.00;5023029;28;20058;-83
2022/11/30 11:38:29;;;;;;;1.40;1.30;;;;;;;1.53;44.73;101739.00;5011239;28;20506;-83
2022/11/30 11:41:00;;;;;;;1.30;1.20;;;;;;;1.28;45.30;101732.91;5028133;28;20046;-83